createdAt,value
2019-02-04T00:00:42.438Z,83.51
2019-02-04T00:03:18.239Z,83.73
2019-02-04T00:05:49.715Z,83.39
2019-02-04T00:08:22.608Z,83.55
2019-02-04T00:10:59.231Z,84.00
2019-02-04T00:13:29.809Z,83.98
2019-02-04T00:16:03.357Z,83.83
2019-02-04T00:18:37.456Z,83.54
2019-02-04T00:21:10.557Z,83.44
2019-02-04T00:23:41.763Z,83.13
2019-02-04T00:26:16.951Z,83.88
2019-02-04T00:28:52.961Z,82.34
2019-02-04T00:31:25.839Z,82.78
2019-02-04T00:33:58.767Z,81.94
2019-02-04T00:36:30.031Z,82.26
2019-02-04T00:39:04.810Z,82.74
2019-02-04T00:41:36.827Z,82.88
2019-02-04T00:44:11.627Z,82.78
2019-02-04T00:46:52.088Z,83.10
2019-02-04T00:49:18.850Z,82.51
2019-02-04T00:51:51.851Z,83.10
2019-02-04T00:54:24.660Z,83.50
2019-02-04T00:56:57.016Z,82.64
2019-02-04T00:59:29.375Z,82.63
2019-02-04T01:02:02.905Z,82.53
2019-02-04T01:04:37.664Z,82.27
2019-02-04T01:07:10.105Z,81.37
2019-02-04T01:09:41.960Z,82.17
2019-02-04T01:12:14.517Z,81.13
2019-02-04T01:14:47.686Z,81.07
2019-02-04T01:17:18.895Z,80.78
2019-02-04T01:19:53.065Z,81.22
2019-02-04T01:22:28.531Z,81.47
2019-02-04T01:25:03.059Z,80.82
2019-02-04T01:27:35.237Z,80.39
2019-02-04T01:30:06.967Z,80.10
2019-02-04T01:32:41.810Z,80.52
2019-02-04T01:35:14.283Z,80.87
2019-02-04T01:37:49.963Z,80.50
2019-02-04T01:40:25.188Z,80.54
2019-02-04T01:42:59.317Z,80.41
2019-02-04T01:45:30.534Z,81.19
2019-02-04T01:48:04.079Z,81.18
2019-02-04T01:50:38.064Z,81.91
2019-02-04T01:53:13.704Z,81.38
2019-02-04T01:55:46.090Z,81.55
2019-02-04T01:58:17.306Z,81.13
2019-02-04T02:00:51.350Z,81.20
2019-02-04T02:03:23.238Z,81.87
2019-02-04T02:05:55.212Z,81.85
2019-02-04T02:08:27.174Z,82.34
2019-02-04T02:11:01.232Z,82.04
2019-02-04T02:13:33.349Z,81.44
2019-02-04T02:16:08.901Z,80.43
2019-02-04T02:18:40.078Z,80.88
2019-02-04T02:21:13.235Z,82.06
2019-02-04T02:23:47.510Z,82.26
2019-02-04T02:26:21.676Z,81.55
2019-02-04T02:28:55.236Z,82.11
2019-02-04T02:31:27.404Z,82.05
2019-02-04T02:34:00.370Z,81.72
2019-02-04T02:36:31.572Z,81.59
2019-02-04T02:39:03.471Z,81.61
2019-02-04T02:41:36.757Z,81.95
2019-02-04T02:44:10.394Z,82.15
2019-02-04T02:46:44.708Z,81.34
2019-02-04T02:49:18.360Z,81.33
2019-02-04T02:51:52.786Z,80.72
2019-02-04T02:54:27.115Z,80.36
2019-02-04T02:57:00.486Z,80.00
2019-02-04T02:59:32.631Z,80.63
2019-02-04T03:02:07.894Z,81.39
2019-02-04T03:04:44.102Z,81.13
2019-02-04T03:07:18.112Z,81.45
2019-02-04T03:09:50.534Z,80.93
2019-02-04T03:12:24.495Z,81.98
2019-02-04T03:14:58.486Z,81.97
2019-02-04T03:17:29.912Z,81.72
2019-02-04T03:20:04.289Z,81.70
2019-02-04T03:22:37.620Z,81.20
2019-02-04T03:25:12.691Z,80.03
2019-02-04T03:27:46.833Z,81.50
2019-02-04T03:30:26.087Z,82.67
2019-02-04T03:32:59.546Z,82.24
2019-02-04T03:35:32.719Z,81.97
2019-02-04T03:38:06.651Z,81.47
2019-02-04T03:40:39.688Z,81.94
2019-02-04T03:43:11.653Z,81.21
2019-02-04T03:45:43.351Z,81.82
2019-02-04T03:48:14.585Z,82.49
2019-02-04T03:50:47.785Z,83.18
2019-02-04T03:53:21.785Z,82.34
2019-02-04T03:55:55.829Z,83.12
2019-02-04T03:58:29.506Z,83.13
2019-02-04T04:01:03.593Z,83.54
2019-02-04T04:03:35.316Z,84.41
2019-02-04T04:06:06.627Z,84.93
2019-02-04T04:08:39.630Z,83.71
2019-02-04T04:11:14.243Z,83.99
2019-02-04T04:13:48.204Z,83.53
2019-02-04T04:16:22.454Z,83.42
2019-02-04T04:18:55.809Z,82.62
2019-02-04T04:21:27.293Z,83.16
2019-02-04T04:24:00.950Z,82.83
2019-02-04T04:26:33.126Z,82.90
2019-02-04T04:29:06.191Z,83.56
2019-02-04T04:31:39.750Z,82.46
2019-02-04T04:34:13.888Z,82.46
2019-02-04T04:36:47.718Z,82.39
2019-02-04T04:39:21.862Z,82.01
2019-02-04T04:41:55.809Z,80.95
2019-02-04T04:44:29.755Z,81.05
2019-02-04T04:47:03.929Z,81.53
2019-02-04T04:49:35.989Z,81.05
2019-02-04T04:52:08.789Z,81.08
2019-02-04T04:54:44.482Z,81.15
2019-02-04T04:57:15.956Z,80.77
2019-02-04T04:59:50.016Z,80.82
2019-02-04T05:02:24.164Z,80.95
2019-02-04T05:04:59.683Z,82.21
2019-02-04T05:07:33.166Z,81.66
2019-02-04T05:10:05.228Z,81.00
2019-02-04T05:12:38.968Z,81.03
2019-02-04T05:15:16.153Z,81.66
2019-02-04T05:17:47.881Z,81.89
2019-02-04T05:20:19.182Z,80.47
2019-02-04T05:22:50.574Z,80.82
2019-02-04T05:25:21.854Z,81.12
2019-02-04T05:27:54.105Z,81.05
2019-02-04T05:30:27.198Z,81.35
2019-02-04T05:33:01.085Z,82.33
2019-02-04T05:35:33.098Z,81.68
2019-02-04T05:38:04.718Z,81.76
2019-02-04T05:40:37.455Z,80.78
2019-02-04T05:43:11.210Z,81.12
2019-02-04T05:45:45.168Z,80.95
2019-02-04T05:48:16.385Z,81.89
2019-02-04T05:50:47.600Z,81.36
2019-02-04T05:53:21.247Z,81.73
2019-02-04T05:55:55.335Z,81.54
2019-02-04T05:58:32.935Z,81.77
2019-02-04T06:01:03.199Z,81.70
2019-02-04T06:03:36.191Z,82.12
2019-02-04T06:06:08.181Z,81.11
2019-02-04T06:08:39.709Z,81.59
2019-02-04T06:11:14.369Z,82.57
2019-02-04T06:13:47.353Z,81.95
2019-02-04T06:16:21.272Z,81.84
2019-02-04T06:19:00.809Z,82.10
2019-02-04T06:21:29.116Z,82.18
2019-02-04T06:24:01.303Z,82.38
2019-02-04T06:26:32.530Z,82.13
2019-02-04T06:29:05.265Z,81.85
2019-02-04T06:31:39.432Z,82.72
2019-02-04T06:34:13.369Z,82.32
2019-02-04T06:36:47.828Z,82.44
2019-02-04T06:39:21.268Z,81.21
2019-02-04T06:41:52.945Z,80.97
2019-02-04T06:44:26.337Z,82.35
2019-02-04T06:47:00.288Z,82.52
2019-02-04T06:49:33.604Z,82.11
2019-02-04T06:52:05.438Z,82.37
2019-02-04T06:54:39.623Z,81.77
2019-02-04T06:57:12.509Z,82.17
2019-02-04T06:59:44.047Z,81.97
2019-02-04T07:02:18.988Z,82.62
2019-02-04T07:04:53.281Z,82.93
2019-02-04T07:07:25.674Z,82.98
2019-02-04T07:10:00.410Z,82.88
2019-02-04T07:12:33.611Z,83.77
2019-02-04T07:15:05.689Z,83.91
2019-02-04T07:17:38.695Z,83.36
2019-02-04T07:20:19.794Z,83.12
2019-02-04T07:22:51.953Z,84.13
2019-02-04T07:25:24.699Z,83.76
2019-02-04T07:27:57.887Z,84.20
2019-02-04T07:30:30.036Z,84.40
2019-02-04T07:33:01.728Z,84.15
2019-02-04T07:35:33.662Z,83.11
2019-02-04T07:38:06.700Z,82.99
2019-02-04T07:40:40.404Z,82.95
2019-02-04T07:43:15.199Z,83.14
2019-02-04T07:45:46.412Z,82.63
2019-02-04T07:48:20.541Z,81.91
2019-02-04T07:50:55.486Z,81.37
2019-02-04T07:53:28.707Z,82.52
2019-02-04T07:56:02.638Z,82.72
2019-02-04T07:58:35.692Z,82.84
2019-02-04T08:01:06.870Z,83.07
2019-02-04T08:03:38.090Z,82.80
2019-02-04T08:06:11.898Z,82.36
2019-02-04T08:08:45.934Z,83.34
2019-02-04T08:11:19.738Z,82.68
2019-02-04T08:13:53.887Z,82.73
2019-02-04T08:16:26.956Z,82.44
2019-02-04T08:18:58.487Z,81.11
2019-02-04T08:21:29.708Z,81.42
2019-02-04T08:24:02.847Z,81.30
2019-02-04T08:26:34.827Z,80.97
2019-02-04T08:29:07.935Z,79.96
2019-02-04T08:31:39.214Z,79.72
2019-02-04T08:34:12.833Z,80.57
2019-02-04T08:36:46.463Z,80.79
2019-02-04T08:39:18.296Z,79.85
2019-02-04T08:41:51.749Z,80.29
2019-02-04T08:44:23.942Z,79.64
2019-02-04T08:46:56.902Z,79.90
2019-02-04T08:49:30.487Z,79.51
2019-02-04T08:52:04.058Z,78.27
2019-02-04T08:54:36.072Z,78.80
2019-02-04T08:57:09.102Z,78.32
2019-02-04T08:59:42.020Z,77.65
2019-02-04T09:02:14.481Z,77.32
2019-02-04T09:04:48.691Z,76.64
2019-02-04T09:07:23.991Z,76.07
2019-02-04T09:09:57.823Z,76.49
2019-02-04T09:12:30.024Z,77.34
2019-02-04T09:15:03.830Z,75.96
2019-02-04T09:17:35.254Z,76.06
2019-02-04T09:20:10.473Z,76.21
2019-02-04T09:22:43.845Z,75.13
2019-02-04T09:25:17.858Z,75.97
2019-02-04T09:27:50.514Z,75.81
2019-02-04T09:30:25.404Z,75.77
2019-02-04T09:33:00.245Z,76.30
2019-02-04T09:35:33.176Z,75.39
2019-02-04T09:38:06.399Z,75.53
2019-02-04T09:40:42.665Z,75.56
2019-02-04T09:43:15.577Z,75.35
2019-02-04T09:45:48.265Z,74.38
2019-02-04T09:48:22.387Z,74.36
2019-02-04T09:50:58.499Z,74.94
2019-02-04T09:53:30.074Z,75.14
2019-02-04T09:56:03.147Z,74.97
2019-02-04T09:58:35.678Z,73.85
2019-02-04T10:01:07.021Z,72.11
2019-02-04T10:03:40.233Z,73.23
2019-02-04T10:06:14.228Z,72.67
2019-02-04T10:08:51.281Z,72.19
2019-02-04T10:11:25.331Z,71.86
2019-02-04T10:13:57.023Z,73.30
2019-02-04T10:16:28.262Z,74.35
2019-02-04T10:19:01.549Z,74.58
2019-02-04T10:21:32.884Z,74.66
2019-02-04T10:24:06.378Z,73.68
2019-02-04T10:26:38.775Z,73.75
2019-02-04T10:29:11.632Z,72.36
2019-02-04T10:31:45.373Z,72.29
2019-02-04T10:34:19.343Z,73.04
2019-02-04T10:36:50.603Z,73.17
2019-02-04T10:39:27.037Z,72.34
2019-02-04T10:41:59.275Z,71.64
2019-02-04T10:44:30.675Z,70.50
2019-02-04T10:47:04.054Z,72.06
2019-02-04T10:49:36.500Z,72.52
2019-02-04T10:52:08.572Z,72.23
2019-02-04T10:54:42.547Z,71.97
2019-02-04T10:57:18.771Z,72.46
2019-02-04T10:59:59.878Z,71.84
2019-02-04T11:02:33.126Z,71.44
2019-02-04T11:05:06.861Z,70.75
2019-02-04T11:07:38.824Z,70.71
2019-02-04T11:10:13.350Z,71.93
2019-02-04T11:12:46.701Z,72.08
2019-02-04T11:15:27.350Z,70.79
2019-02-04T11:18:02.838Z,71.70
2019-02-04T11:20:39.294Z,71.21
2019-02-04T11:23:20.542Z,71.85
2019-02-04T11:26:00.545Z,71.14
2019-02-04T11:28:33.679Z,69.52
2019-02-04T11:31:08.944Z,68.93
2019-02-04T11:33:53.968Z,67.97
2019-02-04T11:36:33.681Z,66.28
2019-02-04T11:39:12.126Z,64.61
2019-02-04T11:41:54.276Z,59.14
2019-02-04T11:44:31.294Z,53.84
2019-02-04T11:47:02.634Z,55.25
2019-02-04T11:49:39.007Z,54.96
2019-02-04T11:52:12.008Z,56.54
2019-02-04T11:54:44.784Z,56.40
2019-02-04T11:57:16.010Z,59.08
2019-02-04T11:59:49.001Z,58.86
2019-02-04T12:02:34.106Z,59.19
2019-02-04T12:05:05.388Z,61.48
2019-02-04T12:07:43.261Z,61.69
2019-02-04T12:10:30.804Z,60.58
2019-02-04T12:13:05.256Z,61.67
2019-02-04T12:15:44.074Z,60.92
2019-02-04T12:18:25.472Z,62.48
2019-02-04T12:20:58.198Z,62.22
2019-02-04T12:23:30.027Z,61.98
2019-02-04T12:26:09.173Z,63.14
2019-02-04T12:28:51.115Z,63.39
2019-02-04T12:31:24.075Z,61.58
2019-02-04T12:33:58.943Z,61.16
2019-02-04T12:36:36.534Z,62.75
2019-02-04T12:39:22.319Z,62.26
2019-02-04T12:42:00.965Z,63.93
2019-02-04T12:44:34.951Z,64.07
2019-02-04T12:47:07.809Z,64.48
2019-02-04T12:49:52.377Z,65.81
2019-02-04T12:52:25.029Z,66.58
2019-02-04T12:55:05.514Z,65.69
2019-02-04T12:57:44.568Z,66.33
2019-02-04T13:00:18.480Z,66.16
2019-02-04T13:02:51.087Z,66.57
2019-02-04T13:05:27.333Z,65.79
2019-02-04T13:08:07.420Z,66.30
2019-02-04T13:10:47.193Z,66.00
2019-02-04T13:13:22.600Z,66.14
2019-02-04T13:15:55.878Z,65.00
2019-02-04T13:18:31.942Z,66.26
2019-02-04T13:21:03.176Z,65.49
2019-02-04T13:23:36.247Z,66.45
2019-02-04T13:26:17.332Z,65.09
2019-02-04T13:28:57.205Z,64.21
2019-02-04T13:31:28.456Z,64.35
2019-02-04T13:34:02.404Z,64.54
2019-02-04T13:36:40.675Z,65.51
2019-02-04T13:39:13.295Z,64.72
2019-02-04T13:41:46.350Z,65.73
2019-02-04T13:44:18.225Z,66.72
2019-02-04T13:46:49.666Z,67.68
2019-02-04T13:49:23.399Z,67.36
2019-02-04T13:51:58.858Z,67.06
2019-02-04T13:54:30.255Z,65.64
2019-02-04T13:57:03.717Z,66.65
2019-02-04T13:59:36.411Z,66.26
2019-02-04T14:02:09.434Z,66.34
2019-02-04T14:04:41.045Z,66.49
2019-02-04T14:07:12.380Z,66.64
2019-02-04T14:09:46.509Z,66.89
2019-02-04T14:12:19.469Z,67.25
2019-02-04T14:14:55.108Z,67.31
2019-02-04T14:17:27.765Z,66.46
2019-02-04T14:20:01.580Z,66.38
2019-02-04T14:22:33.176Z,67.01
2019-02-04T14:25:06.635Z,65.84
2019-02-04T14:27:40.588Z,65.83
2019-02-04T14:30:17.731Z,64.30
2019-02-04T14:32:51.656Z,64.86
2019-02-04T14:35:22.929Z,64.96
2019-02-04T14:37:56.707Z,64.59
2019-02-04T14:40:30.614Z,63.43
2019-02-04T14:43:19.380Z,64.58
2019-02-04T14:46:29.901Z,64.67
2019-02-04T14:49:36.684Z,64.41
2019-02-04T14:52:57.673Z,64.71
2019-02-04T14:56:11.231Z,65.74
2019-02-04T14:59:20.940Z,66.43
2019-02-04T15:02:32.822Z,65.42
2019-02-04T15:05:32.727Z,65.22
2019-02-04T15:08:52.189Z,66.71
2019-02-04T15:12:18.085Z,68.21
2019-02-04T15:15:33.064Z,67.01
2019-02-04T15:18:13.297Z,67.52
2019-02-04T15:21:11.706Z,66.08
2019-02-04T15:24:14.940Z,65.84
2019-02-04T15:27:14.878Z,67.49
2019-02-04T15:30:19.663Z,67.86
2019-02-04T15:33:25.551Z,67.61
2019-02-04T15:36:30.189Z,67.19
2019-02-04T15:39:31.397Z,67.52
2019-02-04T15:42:48.708Z,67.88
2019-02-04T15:45:56.626Z,68.38
2019-02-04T15:48:47.318Z,68.74
2019-02-04T15:51:29.399Z,68.75
2019-02-04T15:54:03.474Z,68.47
2019-02-04T15:56:37.139Z,68.58
2019-02-04T15:59:09.402Z,68.80
2019-02-04T16:01:40.740Z,69.43
2019-02-04T16:04:32.637Z,69.85
2019-02-04T16:07:08.923Z,70.88
2019-02-04T16:09:44.410Z,71.49
2019-02-04T16:12:17.634Z,71.80
2019-02-04T16:14:49.057Z,71.31
2019-02-04T16:17:23.049Z,71.57
2019-02-04T16:19:57.145Z,71.82
2019-02-04T16:22:30.044Z,72.33
2019-02-04T16:25:04.212Z,73.02
2019-02-04T16:27:39.747Z,72.89
2019-02-04T16:30:15.007Z,73.60
2019-02-04T16:32:49.041Z,73.39
2019-02-04T16:35:22.208Z,73.54
2019-02-04T16:37:53.448Z,73.43
2019-02-04T16:40:24.701Z,73.09
2019-02-04T16:42:58.064Z,73.31
2019-02-04T16:45:30.529Z,73.91
2019-02-04T16:48:05.113Z,74.31
2019-02-04T16:50:38.012Z,74.42
2019-02-04T16:53:10.940Z,74.20
2019-02-04T16:55:43.082Z,74.22
2019-02-04T16:58:14.611Z,74.26
2019-02-04T17:00:46.631Z,74.43
2019-02-04T17:03:18.867Z,74.30
2019-02-04T17:05:53.712Z,74.69
2019-02-04T17:08:27.056Z,74.73
2019-02-04T17:10:59.444Z,74.44
2019-02-04T17:13:30.726Z,73.99
2019-02-04T17:16:04.181Z,74.44
2019-02-04T17:18:36.495Z,74.25
2019-02-04T17:21:09.376Z,74.28
2019-02-04T17:23:40.628Z,73.91
2019-02-04T17:26:14.396Z,73.64
2019-02-04T17:28:48.818Z,73.31
2019-02-04T17:31:22.435Z,73.05
2019-02-04T17:33:55.237Z,73.38
2019-02-04T17:36:29.177Z,73.37
2019-02-04T17:39:00.439Z,73.60
2019-02-04T17:41:31.739Z,73.59
2019-02-04T17:44:06.261Z,73.41
2019-02-04T17:46:39.353Z,72.79
2019-02-04T17:49:13.809Z,72.69
2019-02-04T17:51:46.461Z,72.25
2019-02-04T17:54:18.391Z,72.72
2019-02-04T17:56:52.222Z,72.95
2019-02-04T17:59:26.364Z,73.02
2019-02-04T18:01:59.431Z,73.15
2019-02-04T18:04:30.755Z,72.91
2019-02-04T18:07:04.709Z,72.98
2019-02-04T18:09:37.459Z,72.78
2019-02-04T18:12:09.672Z,73.04
2019-02-04T18:14:43.475Z,73.16
2019-02-04T18:17:14.788Z,73.13
2019-02-04T18:19:48.209Z,73.12
2019-02-04T18:22:19.486Z,73.06
2019-02-04T18:24:51.765Z,73.03
2019-02-04T18:27:24.778Z,72.95
2019-02-04T18:29:58.715Z,72.96
2019-02-04T18:32:30.669Z,73.02
2019-02-04T18:35:03.645Z,72.95
2019-02-04T18:37:37.634Z,72.66
2019-02-04T18:40:10.591Z,72.86
2019-02-04T18:42:42.590Z,73.00
2019-02-04T18:45:19.837Z,73.05
2019-02-04T18:47:53.704Z,72.89
2019-02-04T18:50:27.570Z,72.95
2019-02-04T18:53:03.369Z,72.69
2019-02-04T18:55:36.612Z,72.90
2019-02-04T18:58:08.885Z,73.23
2019-02-04T19:00:40.829Z,73.31
2019-02-04T19:03:17.800Z,73.18
2019-02-04T19:05:50.795Z,73.48
2019-02-04T19:08:26.267Z,73.65
2019-02-04T19:10:59.628Z,73.74
2019-02-04T19:13:36.278Z,73.72
2019-02-04T19:16:05.657Z,73.57
2019-02-04T19:18:37.821Z,73.53
2019-02-04T19:21:10.708Z,73.81
2019-02-04T19:23:42.898Z,73.87
2019-02-04T19:26:16.816Z,73.86
2019-02-04T19:28:51.528Z,74.16
2019-02-04T19:31:29.004Z,74.48
2019-02-04T19:34:03.006Z,74.43
2019-02-04T19:36:38.430Z,74.08
2019-02-04T19:39:11.157Z,74.45
2019-02-04T19:41:44.708Z,74.58
2019-02-04T19:44:17.937Z,74.58
2019-02-04T19:46:50.756Z,74.42
2019-02-04T19:49:24.047Z,74.07
2019-02-04T19:51:58.021Z,74.24
2019-02-04T19:54:29.786Z,74.35
2019-02-04T19:57:03.047Z,74.21
2019-02-04T19:59:38.599Z,74.63
2019-02-04T20:02:10.102Z,74.82
2019-02-04T20:04:45.684Z,74.93
2019-02-04T20:07:19.069Z,76.32
2019-02-04T20:09:51.071Z,76.83
2019-02-04T20:12:24.123Z,76.76
2019-02-04T20:14:58.798Z,76.35
2019-02-04T20:17:30.888Z,75.93
2019-02-04T20:20:05.536Z,75.87
2019-02-04T20:22:39.078Z,75.59
2019-02-04T20:25:16.245Z,74.87
2019-02-04T20:27:50.191Z,74.36
2019-02-04T20:30:26.981Z,74.94
2019-02-04T20:32:58.301Z,75.17
2019-02-04T20:35:30.892Z,76.31
2019-02-04T20:38:03.302Z,76.28
2019-02-04T20:40:37.250Z,75.60
2019-02-04T20:43:09.670Z,75.36
2019-02-04T20:45:42.110Z,74.81
2019-02-04T20:48:16.337Z,75.20
2019-02-04T20:50:49.358Z,75.62
2019-02-04T20:53:20.550Z,74.49
2019-02-04T20:55:54.175Z,75.84
2019-02-04T20:58:28.230Z,76.15
2019-02-04T21:01:03.961Z,75.96
2019-02-04T21:03:36.367Z,75.36
2019-02-04T21:06:10.414Z,74.64
2019-02-04T21:08:44.200Z,74.87
2019-02-04T21:11:16.893Z,75.20
2019-02-04T21:13:51.571Z,75.49
2019-02-04T21:16:23.244Z,75.45
2019-02-04T21:18:54.452Z,75.59
2019-02-04T21:21:28.649Z,74.83
2019-02-04T21:24:02.492Z,74.67
2019-02-04T21:26:35.592Z,73.54
2019-02-04T21:29:07.595Z,74.07
2019-02-04T21:31:40.378Z,73.83
2019-02-04T21:34:12.345Z,75.25
2019-02-04T21:36:46.409Z,74.90
2019-02-04T21:39:17.635Z,74.28
2019-02-04T21:41:51.315Z,74.62
2019-02-04T21:44:25.445Z,74.50
2019-02-04T21:47:01.153Z,74.75
2019-02-04T21:49:34.417Z,73.91
2019-02-04T21:52:07.306Z,74.71
2019-02-04T21:54:41.437Z,73.75
2019-02-04T21:57:15.387Z,74.48
2019-02-04T21:59:49.456Z,74.70
2019-02-04T22:02:22.392Z,74.57
2019-02-04T22:04:55.592Z,74.88
2019-02-04T22:07:27.798Z,74.92
2019-02-04T22:09:59.039Z,74.76
2019-02-04T22:12:30.912Z,73.90
2019-02-04T22:15:03.608Z,73.31
2019-02-04T22:17:36.775Z,73.77
2019-02-04T22:20:09.437Z,73.83
2019-02-04T22:22:42.745Z,74.11
2019-02-04T22:25:19.810Z,74.18
2019-02-04T22:27:54.173Z,74.09
2019-02-04T22:30:29.403Z,74.56
2019-02-04T22:33:01.565Z,74.54
2019-02-04T22:35:34.548Z,74.15
2019-02-04T22:38:07.899Z,73.94
2019-02-04T22:40:40.349Z,73.44
2019-02-04T22:43:11.602Z,73.79
2019-02-04T22:45:44.140Z,73.52
2019-02-04T22:48:15.636Z,72.86
2019-02-04T22:50:49.833Z,73.75
2019-02-04T22:53:23.870Z,73.73
2019-02-04T22:55:57.655Z,73.74
2019-02-04T22:58:34.135Z,74.27
2019-02-04T23:01:21.175Z,74.25
2019-02-04T23:03:54.859Z,73.82
2019-02-04T23:06:26.089Z,74.34
2019-02-04T23:08:57.728Z,74.52
2019-02-04T23:11:30.829Z,74.69
2019-02-04T23:14:02.711Z,74.49
2019-02-04T23:16:34.992Z,74.82
2019-02-04T23:19:07.492Z,74.65
2019-02-04T23:21:40.656Z,74.44
2019-02-04T23:24:11.968Z,74.62
2019-02-04T23:26:43.194Z,74.45
2019-02-04T23:29:16.695Z,74.34
2019-02-04T23:31:47.931Z,74.29
2019-02-04T23:34:19.208Z,73.93
2019-02-04T23:36:52.968Z,73.30
2019-02-04T23:39:24.177Z,73.98
2019-02-04T23:41:58.312Z,74.24
2019-02-04T23:44:29.174Z,73.96
2019-02-04T23:47:03.117Z,73.43
2019-02-04T23:49:35.037Z,73.83
2019-02-04T23:52:07.134Z,73.49
2019-02-04T23:54:38.600Z,73.70
2019-02-04T23:57:13.041Z,73.62
2019-02-04T23:59:46.041Z,72.54
